createdAt,value
2018-10-18T00:00:11.406Z,0
2018-10-18T00:01:32.801Z,0
2018-10-18T00:02:34.185Z,0
2018-10-18T00:03:56.489Z,0
2018-10-18T00:04:57.875Z,0
2018-10-18T00:06:19.888Z,0
2018-10-18T00:07:21.232Z,0
2018-10-18T00:08:43.213Z,0
2018-10-18T00:09:44.593Z,0
2018-10-18T00:11:06.813Z,0
2018-10-18T00:12:08.200Z,0
2018-10-18T00:13:30.252Z,0
2018-10-18T00:14:31.633Z,0
2018-10-18T00:15:53.617Z,0
2018-10-18T00:16:55.000Z,0
2018-10-18T00:18:17.290Z,0
2018-10-18T00:19:18.601Z,0
2018-10-18T00:20:40.577Z,0
2018-10-18T00:21:41.961Z,0
2018-10-18T00:23:03.936Z,0
2018-10-18T00:24:05.403Z,0
2018-10-18T00:25:27.553Z,0
2018-10-18T00:26:28.947Z,0
2018-10-18T00:27:50.931Z,0
2018-10-18T00:28:52.314Z,0
2018-10-18T00:30:13.888Z,0
2018-10-18T00:31:15.145Z,0
2018-10-18T00:32:37.353Z,0
2018-10-18T00:33:38.729Z,0
2018-10-18T00:35:00.705Z,0
2018-10-18T00:36:02.133Z,0
2018-10-18T00:37:24.041Z,0
2018-10-18T00:38:25.417Z,0
2018-10-18T00:39:47.697Z,0
2018-10-18T00:40:49.090Z,0
2018-10-18T00:42:11.092Z,0
2018-10-18T00:43:12.412Z,0
2018-10-18T00:44:34.378Z,0
2018-10-18T00:45:35.761Z,0
2018-10-18T00:46:57.969Z,0
2018-10-18T00:47:59.365Z,0
2018-10-18T00:49:21.333Z,0
2018-10-18T00:50:22.722Z,0
2018-10-18T00:51:44.698Z,0
2018-10-18T00:52:46.082Z,0
2018-10-18T00:54:08.364Z,0
2018-10-18T00:55:09.649Z,0
2018-10-18T00:56:31.625Z,0
2018-10-18T00:57:33.018Z,0
2018-10-18T00:58:55.013Z,0
2018-10-18T00:59:56.441Z,0
2018-10-18T01:01:18.602Z,0
2018-10-18T01:02:20.013Z,0
2018-10-18T01:03:41.922Z,0
2018-10-18T01:04:43.306Z,0
2018-10-18T01:06:05.332Z,0
2018-10-18T01:07:06.666Z,0
2018-10-18T01:08:28.874Z,0
2018-10-18T01:09:30.258Z,0
2018-10-18T01:10:52.250Z,0
2018-10-18T01:11:53.660Z,0
2018-10-18T01:13:15.602Z,0
2018-10-18T01:14:17.027Z,0
2018-10-18T01:15:39.198Z,0
2018-10-18T01:16:40.586Z,0
2018-10-18T01:18:02.596Z,0
2018-10-18T01:19:03.947Z,0
2018-10-18T01:20:25.923Z,0
2018-10-18T01:21:27.322Z,0
2018-10-18T01:22:49.538Z,0
2018-10-18T01:23:50.922Z,0
2018-10-18T01:25:12.890Z,0
2018-10-18T01:26:14.366Z,0
2018-10-18T01:27:36.250Z,0
2018-10-18T01:28:37.642Z,0
2018-10-18T01:29:59.856Z,0
2018-10-18T01:31:01.244Z,0
2018-10-18T01:32:23.203Z,0
2018-10-18T01:33:24.595Z,0
2018-10-18T01:34:46.571Z,0
2018-10-18T01:35:47.962Z,0
2018-10-18T01:37:09.671Z,0
2018-10-18T01:38:11.071Z,0
2018-10-18T01:39:32.491Z,0
2018-10-18T01:40:33.876Z,0
2018-10-18T01:41:55.400Z,0
2018-10-18T01:42:56.746Z,0
2018-10-18T01:44:18.387Z,0
2018-10-18T01:45:19.771Z,0
2018-10-18T01:46:41.739Z,0
2018-10-18T01:47:43.123Z,0
2018-10-18T01:49:05.099Z,0
2018-10-18T01:50:06.508Z,0
2018-10-18T01:51:28.452Z,0
2018-10-18T01:52:29.835Z,0
2018-10-18T01:53:51.828Z,0
2018-10-18T01:54:53.203Z,0
2018-10-18T01:56:15.263Z,0
2018-10-18T01:57:16.531Z,0
2018-10-18T01:58:38.691Z,0
2018-10-18T01:59:40.084Z,0
2018-10-18T02:01:02.057Z,0
2018-10-18T02:02:03.452Z,0
2018-10-18T02:03:24.875Z,0
2018-10-18T02:04:26.275Z,0
2018-10-18T02:05:48.475Z,0
2018-10-18T02:06:49.851Z,0
2018-10-18T02:08:11.915Z,0
2018-10-18T02:09:13.188Z,0
2018-10-18T02:10:34.651Z,0
2018-10-18T02:11:36.052Z,0
2018-10-18T02:12:58.188Z,0
2018-10-18T02:13:59.587Z,0
2018-10-18T02:15:21.068Z,0
2018-10-18T02:16:22.452Z,0
2018-10-18T02:17:44.428Z,0
2018-10-18T02:18:45.839Z,0
2018-10-18T02:20:07.516Z,0
2018-10-18T02:21:08.900Z,0
2018-10-18T02:22:30.868Z,0
2018-10-18T02:23:32.254Z,0
2018-10-18T02:24:54.276Z,0
2018-10-18T02:25:55.629Z,0
2018-10-18T02:27:17.828Z,0
2018-10-18T02:28:19.212Z,0
2018-10-18T02:29:41.200Z,0
2018-10-18T02:30:42.575Z,0
2018-10-18T02:32:04.543Z,0
2018-10-18T02:33:05.924Z,0
2018-10-18T02:34:28.060Z,0
2018-10-18T02:35:29.452Z,0
2018-10-18T02:36:51.420Z,0
2018-10-18T02:37:52.805Z,0
2018-10-18T02:39:14.780Z,0
2018-10-18T02:40:16.164Z,0
2018-10-18T02:41:37.868Z,0
2018-10-18T02:42:39.253Z,0
2018-10-18T02:44:01.221Z,0
2018-10-18T02:45:02.612Z,0
2018-10-18T02:46:24.581Z,0
2018-10-18T02:47:25.965Z,0
2018-10-18T02:48:48.109Z,0
2018-10-18T02:49:49.493Z,0
2018-10-18T02:51:10.965Z,0
2018-10-18T02:52:12.349Z,0
2018-10-18T02:53:33.821Z,0
2018-10-18T02:54:35.209Z,0
2018-10-18T02:55:57.413Z,0
2018-10-18T02:56:58.797Z,0
2018-10-18T02:58:20.764Z,0
2018-10-18T02:59:22.151Z,0
2018-10-18T03:00:44.246Z,0
2018-10-18T03:01:45.637Z,0
2018-10-18T03:03:07.278Z,0
2018-10-18T03:04:08.662Z,0
2018-10-18T03:05:30.630Z,0
2018-10-18T03:06:32.023Z,0
2018-10-18T03:07:54.009Z,0
2018-10-18T03:08:55.393Z,0
2018-10-18T03:10:17.390Z,0
2018-10-18T03:11:18.774Z,0
2018-10-18T03:12:40.751Z,0
2018-10-18T03:13:42.134Z,0
2018-10-18T03:15:04.254Z,0
2018-10-18T03:16:05.705Z,0
2018-10-18T03:17:27.600Z,0
2018-10-18T03:18:28.990Z,0
2018-10-18T03:19:50.461Z,0
2018-10-18T03:20:51.846Z,0
2018-10-18T03:22:13.823Z,0
2018-10-18T03:23:15.214Z,0
2018-10-18T03:24:37.416Z,0
2018-10-18T03:25:38.798Z,0
2018-10-18T03:27:00.278Z,0
2018-10-18T03:28:01.670Z,0
2018-10-18T03:29:23.142Z,0
2018-10-18T03:30:24.535Z,0
2018-10-18T03:31:46.679Z,0
2018-10-18T03:32:48.063Z,0
2018-10-18T03:34:09.534Z,0
2018-10-18T03:35:10.926Z,0
2018-10-18T03:36:32.895Z,0
2018-10-18T03:37:34.295Z,0
2018-10-18T03:38:55.998Z,0
2018-10-18T03:39:57.383Z,0
2018-10-18T03:41:18.934Z,0
2018-10-18T03:42:20.232Z,0
2018-10-18T03:43:42.246Z,0
2018-10-18T03:44:43.630Z,0
2018-10-18T03:46:05.623Z,0
2018-10-18T03:47:07.003Z,0
2018-10-18T03:48:28.983Z,0
2018-10-18T03:49:30.366Z,0
2018-10-18T03:50:52.343Z,0
2018-10-18T03:51:53.727Z,0
2018-10-18T03:53:15.231Z,0
2018-10-18T03:54:16.664Z,0
2018-10-18T03:55:38.567Z,0
2018-10-18T03:56:39.951Z,0
2018-10-18T03:58:01.927Z,0
2018-10-18T03:59:03.306Z,0
2018-10-18T04:00:25.456Z,0
2018-10-18T04:01:26.831Z,0
2018-10-18T04:02:48.803Z,0
2018-10-18T04:03:50.191Z,0
2018-10-18T04:05:12.247Z,0
2018-10-18T04:06:13.657Z,0
2018-10-18T04:07:35.609Z,0
2018-10-18T04:08:36.991Z,0
2018-10-18T04:09:58.963Z,0
2018-10-18T04:11:00.342Z,0
2018-10-18T04:12:22.440Z,0
2018-10-18T04:13:23.725Z,0
2018-10-18T04:14:45.626Z,0
2018-10-18T04:15:47.007Z,0
2018-10-18T04:17:08.983Z,0
2018-10-18T04:18:10.407Z,0
2018-10-18T04:19:31.840Z,0
2018-10-18T04:20:33.248Z,0
2018-10-18T04:21:54.752Z,0
2018-10-18T04:22:56.136Z,0
2018-10-18T04:24:18.279Z,0
2018-10-18T04:25:19.693Z,0
2018-10-18T04:26:41.608Z,0
2018-10-18T04:27:42.991Z,0
2018-10-18T04:29:05.194Z,0
2018-10-18T04:30:06.651Z,0
2018-10-18T04:31:28.512Z,0
2018-10-18T04:32:29.904Z,0
2018-10-18T04:33:51.384Z,0
2018-10-18T04:34:52.768Z,0
2018-10-18T04:36:14.377Z,0
2018-10-18T04:37:15.730Z,0
2018-10-18T04:38:37.690Z,0
2018-10-18T04:39:39.072Z,0
2018-10-18T04:41:01.040Z,0
2018-10-18T04:42:02.465Z,0
2018-10-18T04:43:24.592Z,0
2018-10-18T04:44:25.975Z,0
2018-10-18T04:45:47.952Z,0
2018-10-18T04:46:49.337Z,0
2018-10-18T04:48:11.429Z,0
2018-10-18T04:49:12.656Z,0
2018-10-18T04:50:34.656Z,0
2018-10-18T04:51:36.032Z,0
2018-10-18T04:52:58.000Z,0
2018-10-18T04:53:59.392Z,0
2018-10-18T04:55:21.376Z,0
2018-10-18T04:56:22.760Z,0
2018-10-18T04:57:44.896Z,0
2018-10-18T04:58:46.280Z,0
2018-10-18T05:00:08.252Z,0
2018-10-18T05:01:09.744Z,0
2018-10-18T05:02:31.127Z,0
2018-10-18T05:03:32.464Z,0
2018-10-18T05:04:54.731Z,0
2018-10-18T05:05:56.056Z,0
2018-10-18T05:07:18.061Z,0
2018-10-18T05:08:19.376Z,0
2018-10-18T05:09:41.352Z,0
2018-10-18T05:10:42.747Z,0
2018-10-18T05:12:04.944Z,0
2018-10-18T05:13:06.411Z,0
2018-10-18T05:14:28.264Z,0
2018-10-18T05:15:29.649Z,0
2018-10-18T05:16:51.633Z,0
2018-10-18T05:17:53.016Z,0
2018-10-18T05:19:15.073Z,0
2018-10-18T05:20:16.361Z,0
2018-10-18T05:21:38.328Z,0
2018-10-18T05:22:39.705Z,0
2018-10-18T05:24:01.681Z,0
2018-10-18T05:25:03.095Z,0
2018-10-18T05:26:25.225Z,0
2018-10-18T05:27:26.613Z,0
2018-10-18T05:28:48.585Z,0
2018-10-18T05:29:49.969Z,0
2018-10-18T05:31:11.973Z,0
2018-10-18T05:32:13.296Z,0
2018-10-18T05:33:35.289Z,0
2018-10-18T05:34:36.682Z,0
2018-10-18T05:35:58.649Z,0
2018-10-18T05:37:00.102Z,0
2018-10-18T05:38:21.971Z,0
2018-10-18T05:39:23.361Z,0
2018-10-18T05:40:45.353Z,0
2018-10-18T05:41:46.737Z,0
2018-10-18T05:43:08.732Z,0
2018-10-18T05:44:10.065Z,0
2018-10-18T05:45:31.537Z,0
2018-10-18T05:46:32.924Z,0
2018-10-18T05:47:54.913Z,0
2018-10-18T05:48:56.348Z,0
2018-10-18T05:50:18.250Z,0
2018-10-18T05:51:19.633Z,0
2018-10-18T05:52:41.638Z,0
2018-10-18T05:53:43.138Z,0
2018-10-18T05:55:05.273Z,0
2018-10-18T05:56:06.490Z,0
2018-10-18T05:57:27.970Z,0
2018-10-18T05:58:29.354Z,0
2018-10-18T05:59:51.322Z,0
2018-10-18T06:00:52.754Z,0
2018-10-18T06:02:14.706Z,0
2018-10-18T06:03:16.090Z,4
2018-10-18T06:04:38.057Z,4
2018-10-18T06:05:39.442Z,0
2018-10-18T06:07:01.462Z,0
2018-10-18T06:08:02.794Z,0
2018-10-18T06:09:24.938Z,0
2018-10-18T06:10:26.374Z,4
2018-10-18T06:11:47.763Z,4
2018-10-18T06:12:49.148Z,4
2018-10-18T06:14:10.626Z,4
2018-10-18T06:15:12.020Z,4
2018-10-18T06:16:33.667Z,0
2018-10-18T06:17:35.053Z,0
2018-10-18T06:18:57.068Z,4
2018-10-18T06:19:58.403Z,4
2018-10-18T06:21:20.371Z,4
2018-10-18T06:22:21.755Z,0
2018-10-18T06:23:43.899Z,4
2018-10-18T06:24:45.299Z,4
2018-10-18T06:26:06.779Z,4
2018-10-18T06:27:08.165Z,4
2018-10-18T06:28:30.255Z,4
2018-10-18T06:29:31.638Z,4
2018-10-18T06:30:53.301Z,4
2018-10-18T06:31:54.667Z,8
2018-10-18T06:33:16.139Z,4
2018-10-18T06:34:17.523Z,4
2018-10-18T06:35:39.004Z,8
2018-10-18T06:36:40.395Z,8
2018-10-18T06:38:01.884Z,4
2018-10-18T06:39:03.329Z,4
2018-10-18T06:40:24.748Z,8
2018-10-18T06:41:26.140Z,4
2018-10-18T06:42:47.611Z,4
2018-10-18T06:43:48.995Z,4
2018-10-18T06:45:10.516Z,4
2018-10-18T06:46:11.899Z,4
2018-10-18T06:47:33.480Z,8
2018-10-18T06:48:34.723Z,8
2018-10-18T06:49:56.215Z,8
2018-10-18T06:50:57.596Z,8
2018-10-18T06:52:19.235Z,8
2018-10-18T06:53:20.620Z,8
2018-10-18T06:54:42.244Z,8
2018-10-18T06:55:43.628Z,8
2018-10-18T06:57:05.596Z,8
2018-10-18T06:58:06.980Z,8
2018-10-18T06:59:28.628Z,4
2018-10-18T07:00:30.069Z,4
2018-10-18T07:01:51.451Z,8
2018-10-18T07:02:52.836Z,8
2018-10-18T07:04:14.316Z,8
2018-10-18T07:05:15.699Z,8
2018-10-18T07:06:37.196Z,8
2018-10-18T07:07:38.579Z,8
2018-10-18T07:09:00.142Z,8
2018-10-18T07:10:01.412Z,8
2018-10-18T07:11:22.892Z,12
2018-10-18T07:12:24.286Z,8
2018-10-18T07:13:45.988Z,8
2018-10-18T07:14:47.372Z,8
2018-10-18T07:16:09.340Z,8
2018-10-18T07:17:10.724Z,8
2018-10-18T07:18:32.204Z,4
2018-10-18T07:19:33.588Z,8
2018-10-18T07:20:55.732Z,4
2018-10-18T07:21:57.117Z,4
2018-10-18T07:23:19.092Z,8
2018-10-18T07:24:20.477Z,8
2018-10-18T07:25:41.948Z,8
2018-10-18T07:26:43.333Z,8
2018-10-18T07:28:05.476Z,12
2018-10-18T07:29:06.863Z,8
2018-10-18T07:30:28.828Z,8
2018-10-18T07:31:30.212Z,12
2018-10-18T07:32:51.692Z,12
2018-10-18T07:33:53.085Z,12
2018-10-18T07:35:15.221Z,12
2018-10-18T07:36:16.643Z,12
2018-10-18T07:37:38.045Z,12
2018-10-18T07:38:39.428Z,12
2018-10-18T07:40:01.400Z,12
2018-10-18T07:41:02.820Z,12
2018-10-18T07:42:24.772Z,16
2018-10-18T07:43:26.157Z,16
2018-10-18T07:44:48.125Z,16
2018-10-18T07:45:49.512Z,12
2018-10-18T07:47:11.485Z,12
2018-10-18T07:48:12.903Z,12
2018-10-18T07:49:34.380Z,12
2018-10-18T07:50:35.764Z,12
2018-10-18T07:51:57.253Z,12
2018-10-18T07:52:58.675Z,12
2018-10-18T07:54:20.665Z,8
2018-10-18T07:55:21.934Z,12
2018-10-18T07:56:43.924Z,12
2018-10-18T07:57:45.325Z,8
2018-10-18T07:59:07.293Z,12
2018-10-18T08:00:08.760Z,12
2018-10-18T08:01:30.117Z,12
2018-10-18T08:02:31.510Z,12
2018-10-18T08:03:53.645Z,12
2018-10-18T08:04:55.030Z,16
2018-10-18T08:06:17.005Z,12
2018-10-18T08:07:18.481Z,12
2018-10-18T08:08:39.837Z,12
2018-10-18T08:09:41.232Z,12
2018-10-18T08:11:03.545Z,12
2018-10-18T08:12:04.831Z,12
2018-10-18T08:13:26.821Z,12
2018-10-18T08:14:28.197Z,12
2018-10-18T08:15:49.678Z,16
2018-10-18T08:16:51.075Z,12
2018-10-18T08:18:12.680Z,12
2018-10-18T08:19:14.151Z,12
2018-10-18T08:20:35.998Z,12
2018-10-18T08:21:37.382Z,12
2018-10-18T08:22:59.358Z,12
2018-10-18T08:24:00.750Z,12
2018-10-18T08:25:22.952Z,8
2018-10-18T08:26:24.337Z,8
2018-10-18T08:27:46.342Z,8
2018-10-18T08:28:47.742Z,12
2018-10-18T08:30:10.118Z,12
2018-10-18T08:31:11.562Z,8
2018-10-18T08:32:33.110Z,8
2018-10-18T08:33:34.493Z,12
2018-10-18T08:34:55.976Z,12
2018-10-18T08:35:57.391Z,12
2018-10-18T08:37:19.451Z,12
2018-10-18T08:38:20.746Z,12
2018-10-18T08:39:42.790Z,12
2018-10-18T08:40:44.174Z,16
2018-10-18T08:42:06.151Z,12
2018-10-18T08:43:07.559Z,12
2018-10-18T08:44:29.523Z,12
2018-10-18T08:45:30.878Z,12
2018-10-18T08:46:53.071Z,12
2018-10-18T08:47:54.462Z,16
2018-10-18T08:49:16.523Z,16
2018-10-18T08:50:17.791Z,20
2018-10-18T08:51:39.271Z,16
2018-10-18T08:52:40.655Z,20
2018-10-18T08:54:02.800Z,20
2018-10-18T08:55:04.208Z,20
2018-10-18T08:56:26.159Z,24
2018-10-18T08:57:27.551Z,20
2018-10-18T08:58:49.527Z,20
2018-10-18T08:59:50.910Z,24
2018-10-18T09:01:12.592Z,24
2018-10-18T09:02:13.911Z,28
2018-10-18T09:03:35.887Z,28
2018-10-18T09:04:37.278Z,28
2018-10-18T09:05:59.255Z,28
2018-10-18T09:07:00.974Z,28
2018-10-18T09:08:22.807Z,28
2018-10-18T09:09:24.191Z,28
2018-10-18T09:10:46.167Z,32
2018-10-18T09:11:47.559Z,32
2018-10-18T09:13:09.596Z,32
2018-10-18T09:14:10.895Z,32
2018-10-18T09:15:32.391Z,36
2018-10-18T09:16:33.779Z,40
2018-10-18T09:17:55.256Z,40
2018-10-18T09:18:56.676Z,44
2018-10-18T09:20:18.607Z,44
2018-10-18T09:21:19.999Z,44
2018-10-18T09:22:42.154Z,44
2018-10-18T09:23:43.593Z,44
2018-10-18T09:25:05.028Z,44
2018-10-18T09:26:06.375Z,40
2018-10-18T09:27:27.855Z,36
2018-10-18T09:28:29.239Z,36
2018-10-18T09:29:51.432Z,36
2018-10-18T09:30:52.822Z,36
2018-10-18T09:32:14.791Z,40
2018-10-18T09:33:16.232Z,40
2018-10-18T09:34:38.208Z,48
2018-10-18T09:35:39.600Z,48
2018-10-18T09:37:01.610Z,56
2018-10-18T09:38:02.983Z,68
2018-10-18T09:39:24.960Z,72
2018-10-18T09:40:26.344Z,68
2018-10-18T09:41:47.831Z,68
2018-10-18T09:42:49.216Z,72
2018-10-18T09:44:11.278Z,72
2018-10-18T09:45:12.665Z,72
2018-10-18T09:46:34.639Z,76
2018-10-18T09:47:36.032Z,76
2018-10-18T09:48:58.078Z,60
2018-10-18T09:49:59.403Z,72
2018-10-18T09:51:21.576Z,76
2018-10-18T09:52:22.968Z,76
2018-10-18T09:53:44.960Z,80
2018-10-18T09:54:46.354Z,80
2018-10-18T09:56:08.343Z,84
2018-10-18T09:57:09.712Z,84
2018-10-18T09:58:31.848Z,88
2018-10-18T09:59:33.248Z,84
2018-10-18T10:00:55.295Z,88
2018-10-18T10:01:56.650Z,88
2018-10-18T10:03:18.128Z,92
2018-10-18T10:04:19.587Z,96
2018-10-18T10:05:41.640Z,96
2018-10-18T10:06:43.034Z,92
2018-10-18T10:08:05.008Z,100
2018-10-18T10:09:06.410Z,64
2018-10-18T10:10:28.377Z,60
2018-10-18T10:11:29.823Z,92
2018-10-18T10:12:52.239Z,84
2018-10-18T10:13:53.592Z,56
2018-10-18T10:15:15.570Z,76
2018-10-18T10:16:16.961Z,60
2018-10-18T10:17:39.015Z,116
2018-10-18T10:18:40.288Z,128
2018-10-18T10:20:01.945Z,132
2018-10-18T10:21:03.321Z,148
2018-10-18T10:22:25.344Z,148
2018-10-18T10:23:26.696Z,72
2018-10-18T10:24:48.763Z,144
2018-10-18T10:25:50.081Z,148
2018-10-18T10:27:11.738Z,152
2018-10-18T10:28:13.129Z,152
2018-10-18T10:29:35.251Z,144
2018-10-18T10:30:36.641Z,120
2018-10-18T10:31:58.121Z,64
2018-10-18T10:32:59.549Z,128
2018-10-18T10:34:21.665Z,136
2018-10-18T10:35:23.101Z,64
2018-10-18T10:36:44.537Z,72
2018-10-18T10:37:45.922Z,140
2018-10-18T10:39:08.010Z,140
2018-10-18T10:40:09.332Z,136
2018-10-18T10:41:30.865Z,140
2018-10-18T10:42:32.258Z,144
2018-10-18T10:43:54.250Z,144
2018-10-18T10:44:55.657Z,144
2018-10-18T10:46:17.147Z,96
2018-10-18T10:47:18.498Z,72
2018-10-18T10:48:40.137Z,60
2018-10-18T10:49:41.522Z,56
2018-10-18T10:51:03.561Z,68
2018-10-18T10:52:04.935Z,60
2018-10-18T10:53:26.890Z,60
2018-10-18T10:54:28.278Z,148
2018-10-18T10:55:50.474Z,156
2018-10-18T10:56:51.870Z,156
2018-10-18T10:58:13.925Z,152
2018-10-18T10:59:15.234Z,116
2018-10-18T11:00:36.714Z,76
2018-10-18T11:01:38.098Z,104
2018-10-18T11:02:59.802Z,148
2018-10-18T11:04:01.154Z,68
2018-10-18T11:05:23.250Z,64
2018-10-18T11:06:24.644Z,68
2018-10-18T11:07:46.618Z,132
2018-10-18T11:08:48.011Z,116
2018-10-18T11:10:09.731Z,60
2018-10-18T11:11:11.122Z,52
2018-10-18T11:12:33.191Z,52
2018-10-18T11:13:34.450Z,44
2018-10-18T11:14:56.477Z,40
2018-10-18T11:15:57.811Z,40
2018-10-18T11:17:19.546Z,36
2018-10-18T11:18:20.805Z,44
2018-10-18T11:19:42.770Z,48
2018-10-18T11:20:44.154Z,144
2018-10-18T11:22:05.644Z,96
2018-10-18T11:23:07.027Z,96
2018-10-18T11:24:29.247Z,72
2018-10-18T11:25:30.619Z,112
2018-10-18T11:26:52.141Z,164
2018-10-18T11:27:53.499Z,164
2018-10-18T11:29:15.462Z,96
2018-10-18T11:30:16.922Z,128
2018-10-18T11:31:38.979Z,60
2018-10-18T11:32:40.379Z,60
2018-10-18T11:34:02.348Z,60
2018-10-18T11:35:03.744Z,56
2018-10-18T11:36:25.715Z,56
2018-10-18T11:37:27.091Z,56
2018-10-18T11:38:48.844Z,168
2018-10-18T11:39:50.307Z,168
2018-10-18T11:41:12.291Z,172
2018-10-18T11:42:13.768Z,176
2018-10-18T11:43:35.652Z,184
2018-10-18T11:44:37.060Z,180
2018-10-18T11:45:59.187Z,176
2018-10-18T11:47:00.587Z,172
2018-10-18T11:48:22.069Z,76
2018-10-18T11:49:23.462Z,64
2018-10-18T11:50:44.945Z,64
2018-10-18T11:51:46.377Z,64
2018-10-18T11:53:08.491Z,64
2018-10-18T11:54:09.913Z,68
2018-10-18T11:55:31.388Z,108
2018-10-18T11:56:32.772Z,184
2018-10-18T11:57:54.747Z,56
2018-10-18T11:58:56.188Z,52
2018-10-18T12:00:18.292Z,48
2018-10-18T12:01:19.683Z,44
2018-10-18T12:02:41.664Z,44
2018-10-18T12:03:43.053Z,44
2018-10-18T12:05:05.065Z,44
2018-10-18T12:06:06.372Z,44
2018-10-18T12:07:28.077Z,44
2018-10-18T12:08:29.468Z,48
2018-10-18T12:09:51.428Z,44
2018-10-18T12:10:52.843Z,44
2018-10-18T12:12:14.812Z,44
2018-10-18T12:13:16.189Z,44
2018-10-18T12:14:38.351Z,44
2018-10-18T12:15:39.739Z,40
2018-10-18T12:17:01.292Z,44
2018-10-18T12:18:02.635Z,40
2018-10-18T12:19:24.607Z,44
2018-10-18T12:20:25.987Z,52
2018-10-18T12:21:48.191Z,124
2018-10-18T12:22:49.580Z,44
2018-10-18T12:24:11.556Z,40
2018-10-18T12:25:12.948Z,44
2018-10-18T14:05:32.051Z,24
2018-10-18T14:06:33.295Z,24
2018-10-18T14:07:54.778Z,24
2018-10-18T14:08:56.135Z,28
2018-10-18T14:10:18.104Z,24
2018-10-18T14:11:19.583Z,28
2018-10-18T14:12:41.153Z,28
2018-10-18T14:13:42.537Z,28
2018-10-18T14:15:04.008Z,24
2018-10-18T14:16:05.399Z,24
2018-10-18T14:17:27.032Z,24
2018-10-18T14:18:28.223Z,24
2018-10-18T14:19:49.927Z,28
2018-10-18T14:20:51.311Z,24
2018-10-18T14:22:13.311Z,24
2018-10-18T14:23:14.855Z,20
2018-10-18T14:24:36.160Z,20
2018-10-18T14:25:37.544Z,20
2018-10-18T14:26:59.232Z,20
2018-10-18T14:28:00.618Z,20
2018-10-18T14:29:22.102Z,20
2018-10-18T14:30:23.601Z,20
2018-10-18T14:31:45.486Z,20
2018-10-18T14:32:46.864Z,24
2018-10-18T14:34:09.080Z,20
2018-10-18T14:35:10.538Z,20
2018-10-18T14:36:32.407Z,20
2018-10-18T14:37:33.788Z,20
2018-10-18T14:38:55.761Z,20
2018-10-18T14:39:57.136Z,20
2018-10-18T14:41:18.873Z,20
2018-10-18T14:42:20.145Z,20
2018-10-18T14:43:42.174Z,20
2018-10-18T14:44:43.653Z,16
2018-10-18T14:46:05.480Z,16
2018-10-18T14:47:06.983Z,20
2018-10-18T14:48:28.536Z,16
2018-10-18T14:49:29.921Z,20
2018-10-18T14:50:51.413Z,16
2018-10-18T14:51:52.815Z,16
2018-10-18T14:53:14.354Z,16
2018-10-18T14:54:15.632Z,16
2018-10-18T14:55:37.777Z,16
2018-10-18T14:56:39.177Z,16
2018-10-18T14:58:01.233Z,16
2018-10-18T14:59:02.678Z,16
2018-10-18T15:00:24.113Z,12
2018-10-18T15:01:25.515Z,12
2018-10-18T15:02:47.225Z,12
2018-10-18T15:03:48.649Z,12
2018-10-18T15:05:10.674Z,12
2018-10-18T15:06:11.977Z,8
2018-10-18T15:07:33.457Z,12
2018-10-18T15:08:34.849Z,12
2018-10-18T15:09:56.977Z,8
2018-10-18T15:10:58.748Z,8
2018-10-18T15:12:20.713Z,8
2018-10-18T15:13:22.097Z,8
2018-10-18T15:14:44.088Z,4
2018-10-18T15:15:45.457Z,8
2018-10-18T15:17:07.701Z,4
2018-10-18T15:18:09.063Z,8
2018-10-18T15:19:30.993Z,4
2018-10-18T15:20:32.378Z,8
2018-10-18T15:21:54.353Z,4
2018-10-18T15:22:55.778Z,4
2018-10-18T15:24:17.873Z,4
2018-10-18T15:25:19.393Z,8
2018-10-18T15:26:40.806Z,8
2018-10-18T15:27:42.319Z,8
2018-10-18T15:29:03.624Z,4
2018-10-18T20:55:18.147Z,0
2018-10-18T20:56:19.547Z,0
2018-10-18T20:57:41.505Z,0
2018-10-18T20:58:42.948Z,0
2018-10-18T21:00:04.369Z,0
2018-10-18T21:01:05.675Z,0
2018-10-18T21:02:27.806Z,0
2018-10-18T21:03:29.187Z,0
2018-10-18T21:04:51.227Z,0
2018-10-18T21:05:52.636Z,0
2018-10-18T21:07:14.580Z,0
2018-10-18T21:08:15.968Z,0
2018-10-18T21:09:37.659Z,0
2018-10-18T21:10:39.044Z,0
2018-10-18T21:12:01.070Z,0
2018-10-18T21:13:02.431Z,0
2018-10-18T21:14:23.804Z,0
2018-10-18T21:15:25.188Z,0
2018-10-18T21:16:46.845Z,0
2018-10-18T21:17:48.220Z,0
2018-10-18T21:19:10.188Z,0
2018-10-18T21:20:11.571Z,0
2018-10-18T21:21:33.044Z,0
2018-10-18T21:22:34.427Z,0
2018-10-18T21:23:56.134Z,0
2018-10-18T21:24:57.515Z,0
2018-10-18T21:26:19.483Z,0
2018-10-18T21:27:20.876Z,0
2018-10-18T21:28:42.364Z,0
2018-10-18T21:29:43.740Z,0
2018-10-18T21:31:05.380Z,0
2018-10-18T21:32:06.765Z,0
2018-10-18T21:33:28.235Z,0
2018-10-18T21:34:29.907Z,0
2018-10-18T21:35:51.811Z,0
2018-10-18T21:36:53.252Z,0
2018-10-18T21:38:15.068Z,0
2018-10-18T21:39:16.460Z,0
2018-10-18T21:40:37.934Z,0
2018-10-18T21:41:39.315Z,0
2018-10-18T21:43:00.795Z,0
2018-10-18T21:44:02.188Z,0
2018-10-18T21:45:24.326Z,0
2018-10-18T21:46:25.708Z,0
2018-10-18T21:47:47.676Z,0
2018-10-18T21:48:49.076Z,0
2018-10-18T21:50:11.573Z,0
2018-10-18T21:51:13.011Z,0
2018-10-18T21:52:35.092Z,0
2018-10-18T21:53:36.487Z,0
2018-10-18T21:54:58.459Z,0
2018-10-18T21:55:59.860Z,0
2018-10-18T21:57:21.812Z,0
2018-10-18T21:58:23.196Z,0
2018-10-18T21:59:45.561Z,0
2018-10-18T22:00:46.940Z,0
2018-10-18T22:02:08.912Z,0
2018-10-18T22:03:10.320Z,0
2018-10-18T22:04:32.260Z,0
2018-10-18T22:05:33.653Z,0
2018-10-18T22:06:55.461Z,0
2018-10-18T22:07:56.852Z,0
2018-10-18T22:09:18.820Z,0
2018-10-18T22:10:20.220Z,0
2018-10-18T22:11:42.188Z,0
2018-10-18T22:12:43.573Z,0
2018-10-18T22:14:05.221Z,0
2018-10-18T22:15:06.654Z,0
2018-10-18T22:16:28.591Z,0
2018-10-18T22:17:29.973Z,0
2018-10-18T22:18:51.445Z,0
2018-10-18T22:19:52.829Z,0
2018-10-18T22:21:14.583Z,0
2018-10-18T22:22:15.909Z,0
2018-10-18T22:23:37.381Z,0
2018-10-18T22:24:38.765Z,0
2018-10-18T22:26:00.237Z,0
2018-10-18T22:27:01.674Z,0
2018-10-18T22:28:23.781Z,0
2018-10-18T22:29:25.173Z,0
2018-10-18T22:30:47.229Z,0
2018-10-18T22:31:48.613Z,0
2018-10-18T22:33:10.676Z,0
2018-10-18T22:34:11.937Z,0
2018-10-18T22:35:34.070Z,0
2018-10-18T22:36:35.733Z,0
2018-10-18T22:37:57.710Z,0
2018-10-18T22:38:59.097Z,0
2018-10-18T22:40:21.062Z,0
2018-10-18T22:41:22.446Z,0
2018-10-18T22:42:44.645Z,0
2018-10-18T22:43:46.038Z,0
2018-10-18T22:45:07.570Z,0
2018-10-18T22:46:08.878Z,0
2018-10-18T22:47:30.366Z,0
2018-10-18T22:48:31.750Z,0
2018-10-18T22:49:53.894Z,0
2018-10-18T22:50:55.291Z,0
2018-10-18T22:52:16.766Z,0
2018-10-18T22:53:18.160Z,0
2018-10-18T22:54:40.126Z,0
2018-10-18T22:55:41.601Z,0
2018-10-18T22:57:03.295Z,0
2018-10-18T22:58:04.614Z,0
2018-10-18T22:59:26.095Z,0
2018-10-18T23:00:27.622Z,0
2018-10-18T23:01:49.109Z,0
2018-10-18T23:02:50.494Z,0
2018-10-18T23:04:12.150Z,0
2018-10-18T23:05:13.595Z,0
2018-10-18T23:06:35.462Z,0
2018-10-18T23:07:36.846Z,0
2018-10-18T23:08:58.824Z,0
2018-10-18T23:10:00.246Z,0
2018-10-18T23:11:22.398Z,0
2018-10-18T23:12:23.790Z,0
2018-10-18T23:13:45.758Z,0
2018-10-18T23:14:47.142Z,0
2018-10-18T23:16:08.621Z,0
2018-10-18T23:17:10.049Z,0
2018-10-18T23:18:32.102Z,0
2018-10-18T23:19:33.487Z,0
2018-10-18T23:20:56.112Z,0
2018-10-18T23:21:57.469Z,0
2018-10-18T23:23:18.954Z,0
2018-10-18T23:24:20.334Z,0
2018-10-18T23:25:42.038Z,0
2018-10-18T23:26:43.558Z,0
2018-10-18T23:28:05.543Z,0
2018-10-18T23:29:06.989Z,0
2018-10-18T23:30:28.407Z,0
2018-10-18T23:31:29.798Z,0
2018-10-18T23:32:51.503Z,0
2018-10-18T23:33:52.895Z,0
2018-10-18T23:35:15.099Z,0
2018-10-18T23:36:16.743Z,0
2018-10-18T23:37:38.751Z,0
2018-10-18T23:38:40.126Z,0
2018-10-18T23:40:02.336Z,0
2018-10-18T23:41:03.767Z,0
2018-10-18T23:42:25.166Z,0
2018-10-18T23:43:26.542Z,0
2018-10-18T23:44:48.071Z,0
2018-10-18T23:45:49.455Z,0
2018-10-18T23:47:11.621Z,0
2018-10-18T23:48:12.975Z,0
2018-10-18T23:49:34.455Z,0
2018-10-18T23:50:35.840Z,0
2018-10-18T23:51:57.327Z,0
2018-10-18T23:52:58.722Z,0
2018-10-18T23:54:20.415Z,0
2018-10-18T23:55:21.808Z,0
2018-10-18T23:56:43.768Z,0
2018-10-18T23:57:45.151Z,0
2018-10-18T23:59:07.276Z,0
